Bellmunt





Hora UTC 05:10
Temperatura 10.5 ºC
Humedad 87.0 %
Presión 1014.3 hPa
Pluja 2.4 mm
Velocidad viento 8.0 km/h
Dirección viento WNW

Datos diarios 2020-05-30



Hora UTC (invierno +1h; verano +2h)
Temperatura (ºC) Humedad (%) Presión (hPa) Velocidad viento (km/h) Precipitación (mm)
Hora UTC Aire Humedad Presión Vel. Dir. Vel. Max Dir. Intent. máx 5 min.
00:05 13.8 68.0 1014.6 9.7 SSE 9.7 0.0
00:10 14.1 67.0 1014.7 4.8 SSE 12.9 2.4
00:15 14.2 66.0 1014.7 6.4 SSE 11.3 0.0
00:20 14.2 66.0 1014.6 6.4 ESE 9.7 0.0
00:25 14.0 67.0 1014.6 4.8 ESE 9.7 0.0
00:30 14.1 67.0 1014.7 1.6 S 8.0 0.0
00:35 13.9 68.0 1014.7 1.6 S 6.4 0.0
00:40 13.9 68.0 1014.6 0.0 S 4.8 0.0
00:40 13.9 68.0 1014.7 0.0 S 3.2 0.0
00:50 13.9 68.0 1014.6 1.6 S 1.6 0.0
00:55 13.9 67.0 1014.6 3.2 S 4.8 0.0
01:00 13.7 70.0 1014.6 6.4 W 6.4 0.0
01:05 13.6 70.0 1014.6 3.2 W 6.4 0.0
01:10 13.4 71.0 1014.6 3.2 W 6.4 0.0
01:15 13.3 71.0 1014.6 3.2 W 4.8 0.0
01:20 13.3 70.0 1014.6 1.6 W 4.8 0.0
01:25 13.3 70.0 1014.5 1.6 W 3.2 0.0
01:30 13.3 69.0 1014.6 1.6 W 3.2 0.0
01:35 13.3 69.0 1014.5 1.6 W 3.2 0.0
01:40 13.3 69.0 1014.5 3.2 W 4.8 0.0
01:40 13.3 69.0 1014.5 1.6 W 4.8 0.0
01:50 13.5 69.0 1014.6 0.0 W 4.8 0.0
01:55 13.6 69.0 1014.5 0.0 W 0.0 0.0
02:00 13.7 69.0 1014.5 0.0 W 0.0 0.0
02:05 13.7 69.0 1014.5 0.0 SSW 0.0 0.0
02:10 13.7 69.0 1014.4 0.0 SSW 0.0 0.0
02:15 13.6 70.0 1014.3 3.2 SSW 3.2 0.0
02:20 13.4 71.0 1014.3 3.2 W 6.4 0.0
02:25 13.3 71.0 1014.3 1.6 WSW 6.4 0.0
02:30 13.2 73.0 1014.3 0.0 S 6.4 0.0
02:35 12.4 77.0 1014.3 0.0 S 4.8 0.0
02:40 12.2 79.0 1014.2 3.2 S 4.8 0.0
02:40 12.1 79.0 1014.2 6.4 S 6.4 0.0
02:50 11.9 80.0 1014.2 4.8 S 6.4 0.0
02:55 11.8 80.0 1014.1 6.4 S 6.4 0.0
03:00 11.9 79.0 1014.2 1.6 SW 6.4 0.0
03:05 11.9 78.0 1014.2 6.4 WSW 9.7 0.0
03:10 12.2 77.0 1014.2 14.5 WSW 14.5 0.0
03:15 12.1 80.0 1014.2 6.4 W 16.1 0.0
03:20 11.8 82.0 1014.2 6.4 W 14.5 0.0
03:25 11.5 82.0 1014.1 12.9 W 12.9 0.0
03:30 11.4 82.0 1014.2 9.7 W 14.5 0.0
03:35 11.4 81.0 1014.2 12.9 W 14.5 0.0
03:40 11.4 81.0 1014.2 11.3 W 14.5 0.0
03:45 11.4 81.0 1014.3 14.5 WSW 17.7 0.0
03:50 11.4 82.0 1014.3 11.3 WSW 17.7 0.0
03:55 11.3 82.0 1014.2 11.3 WSW 16.1 0.0
04:00 11.3 82.0 1014.3 11.3 W 14.5 0.0
04:05 11.3 83.0 1014.3 12.9 W 14.5 0.0
04:10 11.2 84.0 1014.2 11.3 W 14.5 0.0
04:10 11.2 84.0 1014.2 6.4 W 12.9 0.0
04:20 10.9 85.0 1014.2 9.7 W 9.7 0.0
04:25 10.7 85.0 1014.2 9.7 W 9.7 0.0
04:30 10.5 84.0 1014.2 8.0 WNW 11.3 0.0
04:35 10.4 85.0 1014.2 8.0 WNW 12.9 0.0
04:40 10.6 85.0 1014.3 9.7 WNW 12.9 0.0
04:45 10.6 85.0 1014.3 11.3 WNW 11.3 0.0
04:50 10.6 86.0 1014.3 11.3 NW 12.9 0.0
04:55 10.4 87.0 1014.2 11.3 NW 12.9 0.0
05:00 10.3 88.0 1014.3 8.0 NW 12.9 0.0
05:05 10.4 88.0 1014.3 8.0 NW 12.9 0.0
05:10 10.5 87.0 1014.3 8.0 WNW 11.3 0.0
Máxima 14.2 88.0 1014.7 14.5 WSW 17.7 2.4
Mínima 10.3 66.0 1014.1
Total 2.4